createdAt,value
2023-04-29T00:00:10.439Z,10.00
2023-04-29T00:02:44.801Z,10.88
2023-04-29T00:05:14.151Z,12.45
2023-04-29T00:07:44.182Z,12.10
2023-04-29T00:10:14.829Z,9.43
2023-04-29T00:12:43.866Z,9.80
2023-04-29T00:15:13.168Z,8.77
2023-04-29T00:17:43.718Z,7.55
2023-04-29T00:20:13.724Z,7.13
2023-04-29T00:22:42.733Z,7.10
2023-04-29T00:25:12.360Z,6.38
2023-04-29T00:27:41.946Z,6.00
2023-04-29T00:30:12.461Z,5.83
2023-04-29T00:32:41.483Z,5.97
2023-04-29T00:35:12.403Z,5.57
2023-04-29T00:37:41.375Z,4.97
2023-04-29T00:40:15.109Z,4.70
2023-04-29T00:42:44.304Z,4.10
2023-04-29T00:45:13.655Z,4.10
2023-04-29T00:47:42.740Z,3.72
2023-04-29T00:50:13.562Z,4.30
2023-04-29T00:52:44.279Z,4.53
2023-04-29T00:55:14.316Z,4.05
2023-04-29T00:57:43.579Z,3.90
2023-04-29T01:00:13.984Z,4.00
2023-04-29T01:02:43.400Z,3.20
2023-04-29T01:05:15.120Z,3.28
2023-04-29T01:07:52.812Z,3.40
2023-04-29T01:10:28.284Z,3.92
2023-04-29T01:13:06.881Z,3.38
2023-04-29T01:15:43.867Z,3.70
2023-04-29T01:18:20.581Z,3.50
2023-04-29T01:20:51.972Z,3.28
2023-04-29T01:23:21.275Z,2.88
2023-04-29T01:25:51.670Z,2.80
2023-04-29T01:28:41.991Z,3.13
2023-04-29T01:31:19.664Z,3.40
2023-04-29T01:33:55.929Z,2.88
2023-04-29T01:36:35.580Z,3.00
2023-04-29T01:39:13.690Z,2.95
2023-04-29T01:41:47.326Z,2.60
2023-04-29T01:44:28.510Z,2.78
2023-04-29T01:46:57.871Z,2.63
2023-04-29T01:49:37.391Z,2.70
2023-04-29T01:52:07.135Z,2.92
2023-04-29T01:54:36.953Z,2.53
2023-04-29T01:57:07.532Z,2.80
2023-04-29T01:59:45.865Z,2.60
2023-04-29T02:02:33.542Z,2.40
2023-04-29T02:05:12.253Z,2.80
2023-04-29T02:07:45.728Z,2.80
2023-04-29T02:10:14.952Z,2.80
2023-04-29T02:15:17.489Z,2.25
2023-04-29T02:17:47.104Z,2.25
2023-04-29T02:20:16.681Z,2.35
2023-04-29T02:22:45.684Z,2.75
2023-04-29T02:25:14.848Z,2.40
2023-04-29T02:27:43.997Z,2.50
2023-04-29T02:30:14.745Z,2.35
2023-04-29T02:32:43.953Z,2.47
2023-04-29T02:35:12.972Z,2.47
2023-04-29T02:37:41.991Z,2.30
2023-04-29T02:40:11.691Z,2.30
2023-04-29T02:42:40.770Z,2.50
2023-04-29T02:45:11.011Z,2.35
2023-04-29T02:47:41.489Z,2.50
2023-04-29T02:50:10.825Z,2.22
2023-04-29T02:52:41.891Z,2.55
2023-04-29T02:55:11.152Z,2.63
2023-04-29T02:57:41.272Z,2.72
2023-04-29T03:00:11.536Z,2.72
2023-04-29T03:02:42.078Z,3.00
2023-04-29T03:05:11.655Z,2.90
2023-04-29T03:07:40.761Z,2.80
2023-04-29T03:10:11.636Z,2.72
2023-04-29T03:15:10.812Z,2.72
2023-04-29T03:17:41.403Z,2.33
2023-04-29T03:20:11.749Z,2.77
2023-04-29T03:22:41.595Z,2.33
2023-04-29T03:25:11.642Z,2.53
2023-04-29T03:27:41.976Z,2.65
2023-04-29T03:30:12.156Z,2.45
2023-04-29T03:32:49.357Z,2.50
2023-04-29T03:35:18.420Z,2.97
2023-04-29T03:38:10.833Z,2.78
2023-04-29T03:40:41.135Z,2.60
2023-04-29T03:43:10.265Z,2.75
2023-04-29T03:45:39.310Z,2.55
2023-04-29T03:48:10.472Z,3.03
2023-04-29T03:50:39.564Z,2.73
2023-04-29T03:53:08.715Z,2.70
2023-04-29T03:55:37.716Z,3.00
2023-04-29T03:58:06.797Z,2.95
2023-04-29T04:00:36.235Z,2.95
2023-04-29T04:03:11.032Z,2.45
2023-04-29T04:05:40.825Z,2.45
2023-04-29T04:08:13.645Z,2.60
2023-04-29T04:11:03.073Z,2.65
2023-04-29T04:13:42.503Z,3.00
2023-04-29T04:16:12.101Z,2.80
2023-04-29T04:18:42.611Z,3.13
2023-04-29T04:21:12.951Z,2.90
2023-04-29T04:23:45.216Z,3.05
2023-04-29T04:26:17.563Z,3.17
2023-04-29T04:29:07.179Z,2.92
2023-04-29T04:31:44.932Z,3.47
2023-04-29T04:34:17.443Z,3.85
2023-04-29T04:36:48.498Z,3.70
2023-04-29T04:39:17.566Z,3.80
2023-04-29T04:41:47.060Z,3.42
2023-04-29T04:44:16.634Z,3.95
2023-04-29T04:47:06.837Z,3.80
2023-04-29T04:50:04.420Z,3.80
2023-04-29T04:52:33.736Z,3.42
2023-04-29T04:55:16.052Z,4.18
2023-04-29T04:57:48.364Z,4.35
2023-04-29T05:00:18.048Z,5.03
2023-04-29T05:02:47.327Z,4.78
2023-04-29T05:05:18.000Z,4.20
2023-04-29T05:07:47.395Z,4.57
2023-04-29T05:10:17.315Z,4.63
2023-04-29T05:12:50.962Z,4.07
2023-04-29T05:15:21.528Z,3.88
2023-04-29T05:17:53.159Z,3.83
2023-04-29T05:20:23.656Z,3.90
2023-04-29T05:22:52.723Z,4.07
2023-04-29T05:25:22.767Z,3.83
2023-04-29T05:27:51.811Z,3.75
2023-04-29T05:30:22.158Z,3.80
2023-04-29T05:32:51.403Z,3.70
2023-04-29T05:35:23.449Z,3.90
2023-04-29T05:37:52.483Z,4.23
2023-04-29T05:40:30.546Z,3.53
2023-04-29T05:43:17.545Z,4.38
2023-04-29T05:45:48.353Z,3.80
2023-04-29T05:48:17.488Z,4.05
2023-04-29T05:50:48.630Z,4.22
2023-04-29T05:53:17.639Z,4.57
2023-04-29T05:55:48.669Z,4.07
2023-04-29T05:58:18.792Z,4.50
2023-04-29T06:00:49.482Z,4.50
2023-04-29T06:03:23.522Z,4.60
2023-04-29T06:06:01.274Z,5.00
2023-04-29T06:08:42.865Z,5.05
2023-04-29T06:11:22.495Z,4.90
2023-04-29T06:13:51.571Z,5.00
2023-04-29T06:16:20.822Z,5.28
2023-04-29T06:18:50.305Z,5.35
2023-04-29T06:21:20.898Z,6.13
2023-04-29T06:23:49.973Z,5.95
2023-04-29T06:26:21.017Z,5.40
2023-04-29T06:28:50.122Z,6.17
2023-04-29T06:31:20.660Z,5.50
2023-04-29T06:33:51.376Z,5.50
2023-04-29T06:36:21.884Z,5.70
2023-04-29T06:39:20.239Z,5.90
2023-04-29T06:42:03.765Z,4.80
2023-04-29T06:44:45.046Z,5.45
2023-04-29T06:47:33.093Z,5.30
2023-04-29T06:50:22.481Z,6.22
2023-04-29T06:52:54.265Z,6.07
2023-04-29T06:55:23.323Z,6.20
2023-04-29T06:57:52.405Z,5.95
2023-04-29T07:00:22.963Z,6.03
2023-04-29T07:02:52.566Z,6.10
2023-04-29T07:05:21.723Z,6.30
2023-04-29T07:07:50.832Z,6.50
2023-04-29T07:10:22.220Z,6.47
2023-04-29T07:12:51.299Z,6.40
2023-04-29T07:15:20.393Z,6.57
2023-04-29T07:17:50.313Z,6.28
2023-04-29T07:20:21.864Z,6.35
2023-04-29T07:22:51.797Z,6.15
2023-04-29T07:25:23.056Z,7.18
2023-04-29T07:27:53.577Z,6.22
2023-04-29T07:30:23.393Z,6.13
2023-04-29T07:32:52.554Z,6.15
2023-04-29T07:35:21.782Z,6.55
2023-04-29T07:37:50.881Z,6.07
2023-04-29T07:40:21.516Z,6.45
2023-04-29T07:42:50.830Z,6.45
2023-04-29T07:45:20.167Z,6.55
2023-04-29T07:47:49.335Z,6.43
2023-04-29T07:50:18.504Z,6.03
2023-04-29T07:52:47.634Z,6.80
2023-04-29T07:55:19.091Z,6.40
2023-04-29T07:57:49.798Z,6.53
2023-04-29T08:00:20.833Z,6.35
2023-04-29T08:02:52.704Z,6.40
2023-04-29T08:05:22.609Z,6.18
2023-04-29T08:07:53.312Z,6.00
2023-04-29T08:10:23.296Z,5.90
2023-04-29T08:12:53.761Z,6.10
2023-04-29T08:15:24.703Z,5.70
2023-04-29T08:17:54.970Z,5.70
2023-04-29T08:20:24.082Z,6.60
2023-04-29T08:22:53.516Z,7.40
2023-04-29T08:25:22.702Z,7.25
2023-04-29T08:27:53.201Z,5.97
2023-04-29T08:30:22.337Z,8.83
2023-04-29T08:32:51.568Z,8.40
2023-04-29T08:35:20.971Z,8.50
2023-04-29T08:37:49.927Z,7.47
2023-04-29T08:40:19.175Z,6.78
2023-04-29T08:42:50.720Z,6.65
2023-04-29T08:45:24.208Z,7.25
2023-04-29T08:47:55.026Z,7.63
2023-04-29T08:50:25.400Z,7.03
2023-04-29T08:52:54.449Z,7.18
2023-04-29T08:55:23.445Z,7.00
2023-04-29T08:57:55.739Z,6.90
2023-04-29T09:00:26.799Z,7.28
2023-04-29T09:02:58.561Z,7.45
2023-04-29T09:05:28.409Z,7.40
2023-04-29T09:07:59.752Z,8.07
2023-04-29T09:12:58.613Z,6.80
2023-04-29T09:15:29.091Z,7.70
2023-04-29T09:17:58.144Z,7.43
2023-04-29T09:20:33.402Z,7.35
2023-04-29T09:23:04.840Z,7.32
2023-04-29T09:25:34.532Z,6.90
2023-04-29T09:28:16.950Z,7.97
2023-04-29T09:30:50.788Z,7.40
2023-04-29T09:33:19.767Z,7.88
2023-04-29T09:35:48.878Z,8.43
2023-04-29T09:38:19.382Z,7.72
2023-04-29T09:40:59.109Z,8.60
2023-04-29T09:43:28.897Z,8.00
2023-04-29T09:45:59.420Z,7.78
2023-04-29T09:48:34.381Z,7.55
2023-04-29T09:51:04.272Z,7.20
2023-04-29T09:53:37.936Z,7.93
2023-04-29T09:56:07.462Z,7.93
2023-04-29T09:58:39.073Z,7.93
2023-04-29T10:01:12.780Z,7.35
2023-04-29T10:03:43.816Z,7.80
2023-04-29T10:06:13.215Z,8.43
2023-04-29T10:08:42.580Z,7.78
2023-04-29T10:11:13.005Z,7.75
2023-04-29T10:13:44.376Z,7.75
2023-04-29T10:18:54.873Z,7.25
2023-04-29T10:21:29.755Z,7.50
2023-04-29T10:23:59.849Z,8.02
2023-04-29T10:26:30.238Z,8.02
2023-04-29T10:29:00.381Z,7.95
2023-04-29T10:31:31.353Z,7.95
2023-04-29T10:34:01.758Z,8.07
2023-04-29T10:36:31.662Z,8.07
2023-04-29T10:39:04.390Z,8.18
2023-04-29T10:41:45.779Z,8.15
2023-04-29T10:44:15.023Z,7.35
2023-04-29T10:46:45.491Z,7.47
2023-04-29T10:49:14.563Z,8.03
2023-04-29T10:51:45.273Z,8.23
2023-04-29T10:54:16.731Z,7.78
2023-04-29T10:56:50.091Z,7.60
2023-04-29T10:59:48.281Z,7.13
2023-04-29T11:02:20.111Z,6.70
2023-04-29T11:05:08.545Z,7.28
2023-04-29T11:07:37.889Z,7.55
2023-04-29T11:10:08.918Z,7.60
2023-04-29T11:12:37.987Z,7.32
2023-04-29T11:15:11.560Z,8.35
2023-04-29T11:17:42.064Z,9.13
2023-04-29T11:20:14.744Z,8.47
2023-04-29T11:22:52.032Z,8.90
2023-04-29T11:25:21.108Z,8.80
2023-04-29T11:27:52.735Z,9.20
2023-04-29T11:30:23.430Z,9.85
2023-04-29T11:32:53.977Z,10.27
2023-04-29T11:35:27.804Z,10.93
2023-04-29T11:37:57.042Z,10.90
2023-04-29T11:40:26.284Z,11.35
2023-04-29T11:42:55.366Z,12.27
2023-04-29T11:45:24.784Z,11.98
2023-04-29T11:47:56.089Z,11.98
2023-04-29T11:52:54.202Z,11.98
2023-04-29T11:55:23.310Z,12.10
2023-04-29T11:57:52.599Z,13.32
2023-04-29T12:00:22.023Z,13.43
2023-04-29T12:02:51.411Z,13.18
2023-04-29T12:05:22.160Z,10.57
2023-04-29T12:07:51.669Z,9.85
2023-04-29T12:10:21.521Z,10.07
2023-04-29T12:12:50.862Z,11.43
2023-04-29T12:15:20.158Z,12.00
2023-04-29T12:17:49.312Z,11.18
2023-04-29T12:20:18.457Z,11.73
2023-04-29T12:22:48.983Z,12.27
2023-04-29T12:25:18.389Z,11.37
2023-04-29T12:27:47.419Z,11.43
2023-04-29T12:30:16.388Z,11.70
2023-04-29T12:32:48.682Z,11.23
2023-04-29T12:35:18.352Z,11.07
2023-04-29T12:37:53.525Z,12.10
2023-04-29T12:40:23.109Z,11.60
2023-04-29T12:42:54.401Z,12.30
2023-04-29T12:45:32.153Z,12.23
2023-04-29T12:48:03.304Z,12.38
2023-04-29T12:50:40.196Z,12.13
2023-04-29T12:53:11.739Z,13.32
2023-04-29T12:55:40.974Z,12.52
2023-04-29T12:58:10.405Z,13.68
2023-04-29T13:00:39.463Z,15.18
2023-04-29T13:03:08.776Z,12.85
2023-04-29T13:05:38.087Z,16.90
2023-04-29T13:08:07.278Z,16.25
2023-04-29T13:10:37.707Z,15.18
2023-04-29T13:13:09.634Z,15.80
2023-04-29T13:15:39.286Z,14.60
2023-04-29T13:18:08.410Z,13.65
2023-04-29T13:20:41.668Z,13.20
2023-04-29T13:23:12.101Z,13.43
2023-04-29T13:25:42.634Z,15.70
2023-04-29T13:28:12.246Z,19.20
2023-04-29T13:30:41.639Z,15.88
2023-04-29T13:33:13.276Z,15.07
2023-04-29T13:35:42.707Z,13.43
2023-04-29T13:38:11.718Z,12.65
2023-04-29T13:40:46.586Z,12.88
2023-04-29T13:43:23.392Z,13.95
2023-04-29T13:45:58.758Z,14.70
2023-04-29T13:54:10.476Z,15.55
2023-04-29T14:04:01.712Z,17.45
2023-04-29T14:06:32.619Z,20.17
2023-04-29T14:09:03.747Z,20.08
2023-04-29T14:14:06.349Z,17.73
2023-04-29T14:16:35.427Z,19.13
2023-04-29T14:19:04.736Z,18.80
2023-04-29T14:21:33.879Z,18.65
2023-04-29T14:24:03.762Z,17.92
2023-04-29T14:26:34.379Z,19.33
2023-04-29T14:29:03.538Z,19.50
2023-04-29T14:31:36.316Z,18.38
2023-04-29T14:34:06.127Z,17.95
2023-04-29T14:36:35.200Z,16.90
2023-04-29T14:39:05.008Z,18.77
2023-04-29T14:41:35.459Z,19.73
2023-04-29T14:44:04.543Z,21.13
2023-04-29T14:46:33.623Z,22.38
2023-04-29T14:49:03.288Z,22.25
2023-04-29T14:51:32.482Z,23.25
2023-04-29T14:54:01.519Z,20.48
2023-04-29T14:56:30.922Z,21.08
2023-04-29T14:59:01.359Z,18.98
2023-04-29T15:01:32.071Z,19.43
2023-04-29T15:04:02.033Z,20.98
2023-04-29T15:06:32.384Z,20.42
2023-04-29T15:09:01.891Z,24.83
2023-04-29T15:11:30.927Z,23.83
2023-04-29T15:14:01.601Z,23.50
2023-04-29T15:16:31.706Z,22.95
2023-04-29T15:19:01.040Z,20.52
2023-04-29T15:21:30.248Z,22.70
2023-04-29T15:23:59.286Z,21.27
2023-04-29T15:26:28.655Z,21.60
2023-04-29T15:28:57.806Z,20.65
2023-04-29T15:31:29.327Z,21.50
2023-04-29T15:33:59.755Z,27.33
2023-04-29T15:36:31.004Z,24.08
2023-04-29T15:39:00.457Z,21.48
2023-04-29T15:41:29.557Z,21.60
2023-04-29T15:43:59.018Z,21.55
2023-04-29T15:46:31.713Z,15.80
2023-04-29T15:49:00.856Z,14.50
2023-04-29T15:51:30.040Z,12.73
2023-04-29T15:53:59.059Z,12.50
2023-04-29T15:56:28.096Z,13.55
2023-04-29T15:58:57.091Z,12.95
2023-04-29T16:01:28.279Z,12.15
2023-04-29T16:03:58.972Z,13.32
2023-04-29T16:06:28.575Z,13.88
2023-04-29T16:08:57.612Z,14.90
2023-04-29T16:11:26.827Z,15.95
2023-04-29T16:13:56.055Z,13.88
2023-04-29T16:16:25.741Z,13.90
2023-04-29T16:18:54.787Z,12.77
2023-04-29T16:21:26.096Z,11.52
2023-04-29T16:26:26.768Z,12.13
2023-04-29T16:28:56.032Z,10.60
2023-04-29T16:31:25.182Z,9.48
2023-04-29T16:33:57.114Z,11.05
2023-04-29T16:36:27.974Z,11.40
2023-04-29T16:38:57.992Z,11.45
2023-04-29T16:41:27.236Z,12.07
2023-04-29T16:43:56.487Z,11.70
2023-04-29T16:46:26.054Z,10.23
2023-04-29T16:48:56.889Z,11.63
2023-04-29T16:51:27.587Z,7.85
2023-04-29T16:53:56.815Z,6.93
2023-04-29T16:56:25.881Z,6.07
2023-04-29T16:58:55.018Z,6.38
2023-04-29T17:01:24.400Z,8.32
2023-04-29T17:03:53.521Z,7.88
2023-04-29T17:06:22.721Z,7.63
2023-04-29T17:08:53.814Z,8.13
2023-04-29T17:11:23.003Z,7.63
2023-04-29T17:13:52.121Z,6.45
2023-04-29T17:16:21.341Z,6.15
2023-04-29T17:18:50.419Z,8.10
2023-04-29T17:21:19.488Z,6.95
2023-04-29T17:23:48.556Z,6.25
2023-04-29T17:26:18.997Z,6.72
2023-04-29T17:28:48.238Z,7.65
2023-04-29T17:31:17.317Z,8.32
2023-04-29T17:33:54.972Z,8.52
2023-04-29T17:36:24.243Z,10.55
2023-04-29T17:38:53.698Z,11.02
2023-04-29T17:41:24.155Z,9.50
2023-04-29T17:43:53.206Z,11.03
2023-04-29T17:46:22.259Z,8.60
2023-04-29T17:48:51.270Z,8.02
2023-04-29T17:51:20.311Z,8.00
2023-04-29T17:53:49.658Z,9.00
2023-04-29T17:56:18.750Z,8.88
2023-04-29T17:58:49.308Z,11.82
2023-04-29T18:01:18.455Z,8.53
2023-04-29T18:03:47.810Z,8.65
2023-04-29T18:06:16.819Z,7.65
2023-04-29T18:08:46.079Z,8.50
2023-04-29T18:11:15.068Z,6.90
2023-04-29T18:13:45.014Z,7.43
2023-04-29T18:16:15.989Z,8.40
2023-04-29T18:18:45.153Z,9.68
2023-04-29T18:21:14.278Z,9.43
2023-04-29T18:23:43.395Z,9.02
2023-04-29T18:26:12.452Z,9.65
2023-04-29T18:28:41.492Z,8.90
2023-04-29T18:31:10.801Z,8.88
2023-04-29T18:33:41.305Z,8.15
2023-04-29T18:36:10.314Z,7.70
2023-04-29T18:38:39.438Z,7.32
2023-04-29T18:41:08.729Z,7.28
2023-04-29T18:43:37.827Z,6.85
2023-04-29T18:46:07.076Z,7.97
2023-04-29T18:48:38.345Z,6.00
2023-04-29T18:51:08.818Z,6.82
2023-04-29T18:53:38.045Z,5.80
2023-04-29T18:56:08.467Z,7.32
2023-04-29T18:58:37.671Z,7.47
2023-04-29T19:01:06.917Z,7.25
2023-04-29T19:03:36.089Z,8.25
2023-04-29T19:06:05.436Z,10.80
2023-04-29T19:08:35.994Z,12.48
2023-04-29T19:11:05.147Z,11.80
2023-04-29T19:13:34.282Z,14.25
2023-04-29T19:16:03.328Z,18.70
2023-04-29T19:18:32.412Z,14.15
2023-04-29T19:21:01.952Z,9.27
2023-04-29T19:23:31.287Z,10.60
2023-04-29T19:26:01.683Z,12.05
2023-04-29T19:28:30.852Z,18.60
2023-04-29T19:30:59.955Z,39.63
2023-04-29T19:33:29.104Z,10.52
2023-04-29T19:35:58.204Z,8.55
2023-04-29T19:38:27.484Z,8.48
2023-04-29T19:40:57.039Z,7.95
2023-04-29T19:43:27.575Z,8.43
2023-04-29T19:45:56.597Z,8.27
2023-04-29T19:48:26.267Z,9.45
2023-04-29T19:50:55.291Z,9.80
2023-04-29T19:53:24.294Z,8.23
2023-04-29T19:55:54.241Z,7.32
2023-04-29T19:58:23.240Z,7.53
2023-04-29T20:00:54.008Z,8.05
2023-04-29T20:03:23.157Z,7.63
2023-04-29T20:05:52.498Z,8.63
2023-04-29T20:08:21.713Z,8.85
2023-04-29T20:10:50.844Z,8.73
2023-04-29T20:13:19.959Z,10.05
2023-04-29T20:15:49.165Z,9.10
2023-04-29T20:18:19.951Z,8.02
2023-04-29T20:20:49.104Z,8.75
2023-04-29T20:23:18.180Z,14.52
2023-04-29T20:25:47.352Z,9.45
2023-04-29T20:28:16.381Z,10.15
2023-04-29T20:30:45.410Z,9.85
2023-04-29T20:33:14.493Z,10.02
2023-04-29T20:35:44.988Z,8.80
2023-04-29T20:38:14.038Z,8.00
2023-04-29T20:40:43.749Z,9.45
2023-04-29T20:43:13.547Z,10.15
2023-04-29T20:45:42.959Z,9.98
2023-04-29T20:48:12.080Z,9.00
2023-04-29T20:50:41.388Z,8.32
2023-04-29T20:53:12.285Z,9.18
2023-04-29T20:55:41.382Z,9.27
2023-04-29T20:58:10.665Z,9.18
2023-04-29T21:00:40.742Z,9.38
2023-04-29T21:03:09.926Z,9.88
2023-04-29T21:05:38.998Z,9.07
2023-04-29T21:08:08.135Z,10.27
2023-04-29T21:10:38.541Z,11.38
2023-04-29T21:13:07.617Z,11.13
2023-04-29T21:15:36.775Z,9.85
2023-04-29T21:18:07.388Z,10.73
2023-04-29T21:20:36.523Z,11.50
2023-04-29T21:23:05.687Z,12.88
2023-04-29T21:25:34.718Z,11.45
2023-04-29T21:28:05.444Z,11.35
2023-04-29T21:30:34.544Z,11.65
2023-04-29T21:33:04.174Z,13.45
2023-04-29T21:35:33.357Z,12.80
2023-04-29T21:38:02.898Z,14.05
2023-04-29T21:40:32.002Z,15.32
2023-04-29T21:43:01.435Z,14.13
2023-04-29T21:45:32.012Z,12.77
2023-04-29T21:48:08.238Z,11.60
2023-04-29T21:50:37.317Z,12.60
2023-04-29T21:53:06.467Z,12.95
2023-04-29T21:55:35.563Z,12.45
2023-04-29T21:58:04.746Z,13.05
2023-04-29T22:00:36.660Z,12.82
2023-04-29T22:03:08.350Z,17.75
2023-04-29T22:05:37.839Z,28.52
2023-04-29T22:08:07.927Z,36.95
2023-04-29T22:10:40.163Z,43.20
2023-04-29T22:13:09.394Z,29.40
2023-04-29T22:15:40.122Z,23.80
2023-04-29T22:18:09.252Z,23.60
2023-04-29T22:20:38.381Z,20.80
2023-04-29T22:23:07.382Z,18.58
2023-04-29T22:25:36.561Z,17.55
2023-04-29T22:28:06.032Z,17.88
2023-04-29T22:30:35.057Z,19.73
2023-04-29T22:33:05.525Z,19.15
2023-04-29T22:35:34.571Z,19.27
2023-04-29T22:38:03.596Z,19.73
2023-04-29T22:40:32.611Z,18.85
2023-04-29T22:43:01.654Z,19.02
2023-04-29T22:45:32.024Z,19.38
2023-04-29T22:48:01.066Z,18.50
2023-04-29T22:50:31.674Z,19.20
2023-04-29T22:53:00.962Z,18.23
2023-04-29T22:55:29.957Z,18.25
2023-04-29T22:57:59.420Z,18.95
2023-04-29T23:00:28.483Z,19.35
2023-04-29T23:02:57.528Z,19.90
2023-04-29T23:05:26.832Z,20.10
2023-04-29T23:07:57.271Z,20.00
2023-04-29T23:10:26.454Z,20.37
2023-04-29T23:12:56.040Z,19.55
2023-04-29T23:15:25.838Z,18.98
2023-04-29T23:17:54.908Z,19.08
2023-04-29T23:20:24.643Z,16.90
2023-04-29T23:22:53.690Z,16.55
2023-04-29T23:25:24.114Z,15.73
2023-04-29T23:27:53.283Z,15.77
2023-04-29T23:30:22.382Z,16.50
2023-04-29T23:32:51.476Z,16.88
2023-04-29T23:35:21.303Z,16.15
2023-04-29T23:37:50.373Z,16.38
2023-04-29T23:40:19.545Z,15.75
2023-04-29T23:42:50.121Z,15.95
2023-04-29T23:45:19.403Z,17.40
2023-04-29T23:47:48.556Z,18.17
2023-04-29T23:50:17.843Z,17.35
2023-04-29T23:52:46.887Z,16.70
2023-04-29T23:55:15.912Z,16.23
2023-04-29T23:57:44.932Z,17.00
